sensor_id;sensor_type;location;lat;lon;timestamp;pressure;altitude;pressure_sealevel;temperature;humidity
40372;BME280;28564;53.346;-6.554;2022-09-25T00:00:01;101756.71;;;12.12;44.74
40372;BME280;28564;53.346;-6.554;2022-09-25T00:02:28;101754.34;;;12.09;44.94
40372;BME280;28564;53.346;-6.554;2022-09-25T00:04:55;101756.92;;;11.75;44.88
40372;BME280;28564;53.346;-6.554;2022-09-25T00:07:23;101760.33;;;12.14;44.95
40372;BME280;28564;53.346;-6.554;2022-09-25T00:09:51;101760.75;;;12.10;45.07
40372;BME280;28564;53.346;-6.554;2022-09-25T00:12:18;101756.62;;;12.08;45.28
40372;BME280;28564;53.346;-6.554;2022-09-25T00:14:48;101756.63;;;12.10;45.32
40372;BME280;28564;53.346;-6.554;2022-09-25T00:17:15;101757.88;;;12.08;45.28
40372;BME280;28564;53.346;-6.554;2022-09-25T00:19:43;101761.37;;;12.02;45.27
40372;BME280;28564;53.346;-6.554;2022-09-25T00:22:10;101762.99;;;11.92;45.34
40372;BME280;28564;53.346;-6.554;2022-09-25T00:24:37;101764.62;;;11.84;45.50
40372;BME280;28564;53.346;-6.554;2022-09-25T00:27:05;101763.07;;;11.81;45.65
40372;BME280;28564;53.346;-6.554;2022-09-25T00:29:32;101766.62;;;11.83;45.75
40372;BME280;28564;53.346;-6.554;2022-09-25T00:31:59;101770.85;;;11.87;45.78
40372;BME280;28564;53.346;-6.554;2022-09-25T00:34:26;101773.59;;;11.87;45.62
40372;BME280;28564;53.346;-6.554;2022-09-25T00:36:53;101774.94;;;11.77;45.54
40372;BME280;28564;53.346;-6.554;2022-09-25T00:39:21;101777.58;;;11.67;45.79
40372;BME280;28564;53.346;-6.554;2022-09-25T00:41:48;101780.98;;;11.60;45.89
40372;BME280;28564;53.346;-6.554;2022-09-25T00:44:53;101780.94;;;11.55;45.82
40372;BME280;28564;53.346;-6.554;2022-09-25T00:47:30;101781.37;;;11.45;45.88
40372;BME280;28564;53.346;-6.554;2022-09-25T00:50:00;101777.61;;;11.33;45.97
40372;BME280;28564;53.346;-6.554;2022-09-25T00:52:28;101777.43;;;11.47;46.19
40372;BME280;28564;53.346;-6.554;2022-09-25T00:54:59;101775.89;;;11.43;46.36
40372;BME280;28564;53.346;-6.554;2022-09-25T00:57:30;101776.61;;;11.22;46.48
40372;BME280;28564;53.346;-6.554;2022-09-25T01:00:03;101774.59;;;11.71;46.54
40372;BME280;28564;53.346;-6.554;2022-09-25T01:02:35;101770.61;;;11.26;46.69
40372;BME280;28564;53.346;-6.554;2022-09-25T01:05:06;101766.11;;;11.73;46.69
40372;BME280;28564;53.346;-6.554;2022-09-25T01:07:37;101766.40;;;11.36;46.60
40372;BME280;28564;53.346;-6.554;2022-09-25T01:10:07;101766.16;;;11.05;46.72
40372;BME280;28564;53.346;-6.554;2022-09-25T01:12:35;101764.90;;;11.23;46.91
40372;BME280;28564;53.346;-6.554;2022-09-25T01:15:05;101757.49;;;11.21;46.97
40372;BME280;28564;53.346;-6.554;2022-09-25T01:17:39;101752.55;;;11.15;47.05
40372;BME280;28564;53.346;-6.554;2022-09-25T01:20:24;101747.25;;;11.10;47.16
40372;BME280;28564;53.346;-6.554;2022-09-25T01:23:09;101742.73;;;10.93;47.08
40372;BME280;28564;53.346;-6.554;2022-09-25T01:25:55;101740.12;;;11.19;47.02
40372;BME280;28564;53.346;-6.554;2022-09-25T01:28:49;101738.59;;;10.96;47.04
40372;BME280;28564;53.346;-6.554;2022-09-25T01:31:26;101731.06;;;11.33;47.30
40372;BME280;28564;53.346;-6.554;2022-09-25T01:33:59;101723.24;;;10.97;47.45
40372;BME280;28564;53.346;-6.554;2022-09-25T01:36:33;101717.92;;;10.95;47.50
40372;BME280;28564;53.346;-6.554;2022-09-25T01:39:08;101713.92;;;11.01;47.43
40372;BME280;28564;53.346;-6.554;2022-09-25T01:41:42;101711.67;;;10.72;47.55
40372;BME280;28564;53.346;-6.554;2022-09-25T01:44:12;101708.58;;;11.20;47.67
40372;BME280;28564;53.346;-6.554;2022-09-25T01:46:45;101706.65;;;11.21;47.78
40372;BME280;28564;53.346;-6.554;2022-09-25T01:49:18;101708.30;;;10.89;47.65
40372;BME280;28564;53.346;-6.554;2022-09-25T01:51:50;101707.22;;;10.82;47.68
40372;BME280;28564;53.346;-6.554;2022-09-25T01:54:20;101707.98;;;10.79;47.88
40372;BME280;28564;53.346;-6.554;2022-09-25T01:56:52;101704.65;;;10.78;48.10
40372;BME280;28564;53.346;-6.554;2022-09-25T01:59:26;101705.27;;;11.10;48.21
40372;BME280;28564;53.346;-6.554;2022-09-25T02:01:58;101708.30;;;10.92;48.32
40372;BME280;28564;53.346;-6.554;2022-09-25T02:04:30;101708.03;;;10.74;48.41
40372;BME280;28564;53.346;-6.554;2022-09-25T02:07:03;101707.38;;;11.03;48.52
40372;BME280;28564;53.346;-6.554;2022-09-25T02:09:35;101702.91;;;10.90;48.60
40372;BME280;28564;53.346;-6.554;2022-09-25T02:12:07;101697.62;;;11.05;48.67
40372;BME280;28564;53.346;-6.554;2022-09-25T02:14:39;101695.54;;;11.38;48.64
40372;BME280;28564;53.346;-6.554;2022-09-25T02:17:09;101696.76;;;11.37;48.64
40372;BME280;28564;53.346;-6.554;2022-09-25T02:19:38;101696.10;;;11.35;48.41
40372;BME280;28564;53.346;-6.554;2022-09-25T02:22:09;101694.93;;;11.64;48.21
40372;BME280;28564;53.346;-6.554;2022-09-25T02:24:43;101695.23;;;11.68;48.21
40372;BME280;28564;53.346;-6.554;2022-09-25T02:27:14;101693.34;;;11.66;48.31
40372;BME280;28564;53.346;-6.554;2022-09-25T02:29:42;101694.22;;;11.62;48.52
40372;BME280;28564;53.346;-6.554;2022-09-25T02:32:11;101697.59;;;11.63;48.65
40372;BME280;28564;53.346;-6.554;2022-09-25T02:34:40;101700.27;;;11.69;48.72
40372;BME280;28564;53.346;-6.554;2022-09-25T02:37:10;101696.91;;;11.72;48.69
40372;BME280;28564;53.346;-6.554;2022-09-25T02:39:38;101697.20;;;11.73;48.69
40372;BME280;28564;53.346;-6.554;2022-09-25T02:42:17;101697.13;;;11.79;48.75
40372;BME280;28564;53.346;-6.554;2022-09-25T02:44:58;101698.76;;;11.82;48.73
40372;BME280;28564;53.346;-6.554;2022-09-25T02:47:34;101696.59;;;12.08;48.68
40372;BME280;28564;53.346;-6.554;2022-09-25T02:50:14;101697.66;;;11.64;48.54
40372;BME280;28564;53.346;-6.554;2022-09-25T02:52:51;101696.90;;;11.82;48.37
40372;BME280;28564;53.346;-6.554;2022-09-25T02:55:24;101693.79;;;11.76;48.28
40372;BME280;28564;53.346;-6.554;2022-09-25T02:57:57;101694.58;;;11.65;48.23
40372;BME280;28564;53.346;-6.554;2022-09-25T03:00:26;101691.19;;;11.55;48.44
40372;BME280;28564;53.346;-6.554;2022-09-25T03:02:56;101691.23;;;11.51;48.53
40372;BME280;28564;53.346;-6.554;2022-09-25T03:05:25;101684.29;;;11.46;48.60
40372;BME280;28564;53.346;-6.554;2022-09-25T03:07:52;101679.95;;;11.45;48.74
40372;BME280;28564;53.346;-6.554;2022-09-25T03:10:21;101675.51;;;11.41;48.79
40372;BME280;28564;53.346;-6.554;2022-09-25T03:12:49;101672.83;;;11.37;48.80
40372;BME280;28564;53.346;-6.554;2022-09-25T03:15:16;101666.48;;;11.31;48.80
40372;BME280;28564;53.346;-6.554;2022-09-25T03:17:45;101658.18;;;11.23;48.73
40372;BME280;28564;53.346;-6.554;2022-09-25T03:20:12;101652.20;;;11.14;48.81
40372;BME280;28564;53.346;-6.554;2022-09-25T03:22:39;101653.57;;;11.22;49.09
40372;BME280;28564;53.346;-6.554;2022-09-25T03:25:07;101652.28;;;10.82;49.31
40372;BME280;28564;53.346;-6.554;2022-09-25T03:27:33;101646.98;;;11.23;49.50
40372;BME280;28564;53.346;-6.554;2022-09-25T03:30:01;101642.00;;;10.93;49.75
40372;BME280;28564;53.346;-6.554;2022-09-25T03:32:28;101643.65;;;11.18;49.85
40372;BME280;28564;53.346;-6.554;2022-09-25T03:34:55;101641.52;;;10.89;49.89
40372;BME280;28564;53.346;-6.554;2022-09-25T03:37:23;101639.59;;;10.87;49.96
40372;BME280;28564;53.346;-6.554;2022-09-25T03:39:50;101639.19;;;10.89;49.97
40372;BME280;28564;53.346;-6.554;2022-09-25T03:42:17;101635.06;;;10.82;49.85
40372;BME280;28564;53.346;-6.554;2022-09-25T03:44:45;101633.59;;;11.02;49.90
40372;BME280;28564;53.346;-6.554;2022-09-25T03:47:12;101631.50;;;10.99;49.99
40372;BME280;28564;53.346;-6.554;2022-09-25T03:49:39;101631.98;;;10.66;50.08
40372;BME280;28564;53.346;-6.554;2022-09-25T03:52:07;101632.70;;;10.88;50.20
40372;BME280;28564;53.346;-6.554;2022-09-25T03:54:34;101631.75;;;10.84;50.37
40372;BME280;28564;53.346;-6.554;2022-09-25T03:57:01;101630.91;;;10.57;50.55
40372;BME280;28564;53.346;-6.554;2022-09-25T03:59:28;101633.22;;;10.61;50.58
40372;BME280;28564;53.346;-6.554;2022-09-25T04:01:56;101635.98;;;10.62;50.49
40372;BME280;28564;53.346;-6.554;2022-09-25T04:04:23;101633.09;;;10.60;50.44
40372;BME280;28564;53.346;-6.554;2022-09-25T04:06:50;101635.77;;;10.78;50.58
40372;BME280;28564;53.346;-6.554;2022-09-25T04:09:18;101634.16;;;10.42;50.78
40372;BME280;28564;53.346;-6.554;2022-09-25T04:11:45;101634.83;;;10.66;51.04
40372;BME280;28564;53.346;-6.554;2022-09-25T04:14:12;101636.53;;;10.38;51.17
40372;BME280;28564;53.346;-6.554;2022-09-25T04:16:40;101638.80;;;10.64;51.42
40372;BME280;28564;53.346;-6.554;2022-09-25T04:19:07;101637.68;;;10.59;51.53
40372;BME280;28564;53.346;-6.554;2022-09-25T04:21:34;101635.80;;;10.60;51.74
40372;BME280;28564;53.346;-6.554;2022-09-25T04:24:02;101629.67;;;10.63;51.83
40372;BME280;28564;53.346;-6.554;2022-09-25T04:26:29;101631.83;;;10.65;51.78
40372;BME280;28564;53.346;-6.554;2022-09-25T04:28:58;101632.63;;;10.63;51.74
40372;BME280;28564;53.346;-6.554;2022-09-25T04:31:25;101634.66;;;10.58;51.75
40372;BME280;28564;53.346;-6.554;2022-09-25T04:33:53;101630.18;;;10.56;51.73
40372;BME280;28564;53.346;-6.554;2022-09-25T04:36:20;101627.02;;;10.32;51.82
40372;BME280;28564;53.346;-6.554;2022-09-25T04:38:48;101630.16;;;10.63;52.02
40372;BME280;28564;53.346;-6.554;2022-09-25T04:41:15;101630.90;;;10.66;52.16
40372;BME280;28564;53.346;-6.554;2022-09-25T04:43:43;101630.26;;;10.74;52.18
40372;BME280;28564;53.346;-6.554;2022-09-25T04:46:11;101627.23;;;10.52;52.10
40372;BME280;28564;53.346;-6.554;2022-09-25T04:48:43;101627.53;;;10.59;52.06
40372;BME280;28564;53.346;-6.554;2022-09-25T04:51:11;101622.37;;;10.95;51.93
40372;BME280;28564;53.346;-6.554;2022-09-25T04:53:38;101622.70;;;10.98;51.70
40372;BME280;28564;53.346;-6.554;2022-09-25T04:56:07;101626.50;;;11.00;51.59
40372;BME280;28564;53.346;-6.554;2022-09-25T04:58:35;101636.83;;;11.05;51.79
40372;BME280;28564;53.346;-6.554;2022-09-25T05:01:03;101638.57;;;11.16;51.82
40372;BME280;28564;53.346;-6.554;2022-09-25T05:03:30;101637.91;;;10.92;51.68
40372;BME280;28564;53.346;-6.554;2022-09-25T05:05:57;101636.99;;;10.70;51.69
40372;BME280;28564;53.346;-6.554;2022-09-25T05:08:25;101636.46;;;10.98;51.78
40372;BME280;28564;53.346;-6.554;2022-09-25T05:10:52;101635.84;;;11.34;51.66
40372;BME280;28564;53.346;-6.554;2022-09-25T05:13:19;101634.89;;;11.17;51.59
40372;BME280;28564;53.346;-6.554;2022-09-25T05:15:47;101641.15;;;11.02;51.50
40372;BME280;28564;53.346;-6.554;2022-09-25T05:18:16;101640.71;;;11.24;51.42
40372;BME280;28564;53.346;-6.554;2022-09-25T05:20:44;101640.68;;;11.19;51.47
40372;BME280;28564;53.346;-6.554;2022-09-25T05:23:11;101637.48;;;11.18;51.67
40372;BME280;28564;53.346;-6.554;2022-09-25T05:25:38;101639.09;;;10.99;51.71
40372;BME280;28564;53.346;-6.554;2022-09-25T05:28:06;101641.14;;;11.30;51.67
40372;BME280;28564;53.346;-6.554;2022-09-25T05:30:34;101641.70;;;11.39;51.59
40372;BME280;28564;53.346;-6.554;2022-09-25T05:33:02;101641.34;;;11.21;51.55
40372;BME280;28564;53.346;-6.554;2022-09-25T05:35:30;101644.92;;;11.26;51.55
40372;BME280;28564;53.346;-6.554;2022-09-25T05:37:58;101636.12;;;11.37;51.48
40372;BME280;28564;53.346;-6.554;2022-09-25T05:40:26;101631.18;;;11.65;51.20
40372;BME280;28564;53.346;-6.554;2022-09-25T05:42:54;101627.23;;;11.39;51.14
40372;BME280;28564;53.346;-6.554;2022-09-25T05:45:22;101632.04;;;11.36;51.22
40372;BME280;28564;53.346;-6.554;2022-09-25T05:47:58;101635.61;;;11.37;51.38
40372;BME280;28564;53.346;-6.554;2022-09-25T05:50:26;101635.75;;;11.39;51.45
40372;BME280;28564;53.346;-6.554;2022-09-25T05:52:55;101634.21;;;11.40;51.59
40372;BME280;28564;53.346;-6.554;2022-09-25T05:55:22;101634.57;;;11.46;51.72
40372;BME280;28564;53.346;-6.554;2022-09-25T05:57:49;101635.08;;;11.52;51.63
40372;BME280;28564;53.346;-6.554;2022-09-25T06:00:17;101637.87;;;11.55;51.61
40372;BME280;28564;53.346;-6.554;2022-09-25T06:02:44;101635.94;;;11.57;51.62
40372;BME280;28564;53.346;-6.554;2022-09-25T06:05:11;101630.22;;;11.63;51.68
40372;BME280;28564;53.346;-6.554;2022-09-25T06:07:38;101631.23;;;11.64;51.52
40372;BME280;28564;53.346;-6.554;2022-09-25T06:10:07;101638.66;;;11.58;51.58
40372;BME280;28564;53.346;-6.554;2022-09-25T06:12:35;101637.41;;;11.55;51.65
40372;BME280;28564;53.346;-6.554;2022-09-25T06:15:03;101639.03;;;11.53;51.70
40372;BME280;28564;53.346;-6.554;2022-09-25T06:17:30;101644.43;;;11.48;51.81
40372;BME280;28564;53.346;-6.554;2022-09-25T06:19:57;101646.56;;;11.51;51.85
40372;BME280;28564;53.346;-6.554;2022-09-25T06:22:24;101650.92;;;11.57;51.77
40372;BME280;28564;53.346;-6.554;2022-09-25T06:24:52;101654.24;;;11.57;51.77
40372;BME280;28564;53.346;-6.554;2022-09-25T06:27:19;101660.63;;;11.51;51.93
40372;BME280;28564;53.346;-6.554;2022-09-25T06:29:47;101663.71;;;11.64;52.16
40372;BME280;28564;53.346;-6.554;2022-09-25T06:32:14;101660.00;;;11.38;52.38
40372;BME280;28564;53.346;-6.554;2022-09-25T06:34:41;101666.54;;;11.44;52.39
40372;BME280;28564;53.346;-6.554;2022-09-25T06:37:08;101664.28;;;11.42;52.40
40372;BME280;28564;53.346;-6.554;2022-09-25T06:39:35;101661.06;;;11.47;52.50
40372;BME280;28564;53.346;-6.554;2022-09-25T06:42:02;101661.35;;;11.75;52.30
40372;BME280;28564;53.346;-6.554;2022-09-25T06:44:29;101659.70;;;11.53;52.29
40372;BME280;28564;53.346;-6.554;2022-09-25T06:46:57;101656.02;;;11.81;52.34
40372;BME280;28564;53.346;-6.554;2022-09-25T06:49:24;101657.44;;;11.43;52.35
40372;BME280;28564;53.346;-6.554;2022-09-25T06:51:51;101646.47;;;11.74;52.36
40372;BME280;28564;53.346;-6.554;2022-09-25T06:54:18;101639.09;;;11.84;52.17
40372;BME280;28564;53.346;-6.554;2022-09-25T06:56:47;101633.80;;;11.93;52.16
40372;BME280;28564;53.346;-6.554;2022-09-25T06:59:15;101632.40;;;11.79;51.99
40372;BME280;28564;53.346;-6.554;2022-09-25T07:01:42;101631.83;;;12.04;51.88
40372;BME280;28564;53.346;-6.554;2022-09-25T07:04:10;101632.28;;;12.01;51.86
40372;BME280;28564;53.346;-6.554;2022-09-25T07:06:37;101626.89;;;11.76;51.97
40372;BME280;28564;53.346;-6.554;2022-09-25T07:09:04;101620.81;;;12.02;52.01
40372;BME280;28564;53.346;-6.554;2022-09-25T07:11:32;101617.50;;;12.09;52.00
40372;BME280;28564;53.346;-6.554;2022-09-25T07:13:59;101611.18;;;12.19;52.04
40372;BME280;28564;53.346;-6.554;2022-09-25T07:16:28;101607.21;;;11.84;51.93
40372;BME280;28564;53.346;-6.554;2022-09-25T07:18:57;101604.57;;;12.24;51.76
40372;BME280;28564;53.346;-6.554;2022-09-25T07:21:24;101605.03;;;12.33;51.48
40372;BME280;28564;53.346;-6.554;2022-09-25T07:23:52;101603.42;;;12.37;51.43
40372;BME280;28564;53.346;-6.554;2022-09-25T07:26:20;101602.50;;;12.74;51.20
40372;BME280;28564;53.346;-6.554;2022-09-25T07:28:52;101602.42;;;12.37;51.05
40372;BME280;28564;53.346;-6.554;2022-09-25T07:31:21;101597.85;;;12.45;50.95
40372;BME280;28564;53.346;-6.554;2022-09-25T07:33:48;101593.59;;;12.41;51.10
40372;BME280;28564;53.346;-6.554;2022-09-25T07:36:16;101592.08;;;12.70;51.26
40372;BME280;28564;53.346;-6.554;2022-09-25T07:38:47;101589.27;;;12.51;51.34
40372;BME280;28564;53.346;-6.554;2022-09-25T07:41:15;101593.82;;;12.63;51.26
40372;BME280;28564;53.346;-6.554;2022-09-25T07:43:43;101591.73;;;12.76;51.12
40372;BME280;28564;53.346;-6.554;2022-09-25T07:46:11;101593.75;;;12.89;51.00
40372;BME280;28564;53.346;-6.554;2022-09-25T07:48:38;101593.09;;;12.97;50.78
40372;BME280;28564;53.346;-6.554;2022-09-25T07:51:08;101587.59;;;13.05;50.52
40372;BME280;28564;53.346;-6.554;2022-09-25T07:53:35;101585.92;;;13.14;50.43
40372;BME280;28564;53.346;-6.554;2022-09-25T07:56:03;101586.78;;;13.20;50.21
40372;BME280;28564;53.346;-6.554;2022-09-25T07:58:30;101587.25;;;13.16;50.03
40372;BME280;28564;53.346;-6.554;2022-09-25T08:00:59;101590.92;;;13.18;50.29
40372;BME280;28564;53.346;-6.554;2022-09-25T08:03:27;101595.38;;;13.06;50.52
40372;BME280;28564;53.346;-6.554;2022-09-25T08:05:57;101600.88;;;13.38;50.36
40372;BME280;28564;53.346;-6.554;2022-09-25T08:08:26;101606.46;;;13.29;50.28
40372;BME280;28564;53.346;-6.554;2022-09-25T08:10:57;101606.53;;;13.64;49.89
40372;BME280;28564;53.346;-6.554;2022-09-25T08:13:25;101602.83;;;13.71;49.73
40372;BME280;28564;53.346;-6.554;2022-09-25T08:15:52;101602.49;;;13.34;49.41
40372;BME280;28564;53.346;-6.554;2022-09-25T08:18:20;101598.15;;;13.80;49.47
40372;BME280;28564;53.346;-6.554;2022-09-25T08:20:47;101596.83;;;13.38;49.50
40372;BME280;28564;53.346;-6.554;2022-09-25T08:23:14;101593.70;;;13.45;49.59
40372;BME280;28564;53.346;-6.554;2022-09-25T08:25:41;101588.26;;;13.54;49.65
40372;BME280;28564;53.346;-6.554;2022-09-25T08:28:08;101583.92;;;13.70;49.57
40372;BME280;28564;53.346;-6.554;2022-09-25T08:30:36;101583.41;;;13.85;49.31
40372;BME280;28564;53.346;-6.554;2022-09-25T08:33:03;101579.43;;;13.89;49.14
40372;BME280;28564;53.346;-6.554;2022-09-25T08:35:30;101575.43;;;13.91;49.06
40372;BME280;28564;53.346;-6.554;2022-09-25T08:37:57;101572.22;;;13.69;49.11
40372;BME280;28564;53.346;-6.554;2022-09-25T08:40:26;101566.27;;;14.04;49.15
40372;BME280;28564;53.346;-6.554;2022-09-25T08:42:56;101560.99;;;14.15;49.15
40372;BME280;28564;53.346;-6.554;2022-09-25T08:45:27;101560.52;;;14.05;49.20
40372;BME280;28564;53.346;-6.554;2022-09-25T08:47:56;101556.42;;;14.26;48.92
40372;BME280;28564;53.346;-6.554;2022-09-25T08:50:25;101555.80;;;14.40;48.75
40372;BME280;28564;53.346;-6.554;2022-09-25T08:52:59;101550.99;;;14.25;48.48
40372;BME280;28564;53.346;-6.554;2022-09-25T08:55:30;101557.46;;;14.37;48.35
40372;BME280;28564;53.346;-6.554;2022-09-25T08:57:59;101556.68;;;14.69;48.18
40372;BME280;28564;53.346;-6.554;2022-09-25T09:03:55;101556.63;;;14.82;47.32
40372;BME280;28564;53.346;-6.554;2022-09-25T09:06:25;101540.04;;;15.13;47.47
40372;BME280;28564;53.346;-6.554;2022-09-25T09:08:58;101532.44;;;14.88;47.71
40372;BME280;28564;53.346;-6.554;2022-09-25T09:11:31;101535.98;;;14.88;47.54
40372;BME280;28564;53.346;-6.554;2022-09-25T09:14:02;101531.53;;;15.10;47.83
40372;BME280;28564;53.346;-6.554;2022-09-25T09:16:36;101528.81;;;14.82;47.97
40372;BME280;28564;53.346;-6.554;2022-09-25T09:19:10;101528.55;;;14.83;47.90
40372;BME280;28564;53.346;-6.554;2022-09-25T09:21:40;101530.96;;;15.07;48.02
40372;BME280;28564;53.346;-6.554;2022-09-25T09:24:15;101528.57;;;14.83;48.32
40372;BME280;28564;53.346;-6.554;2022-09-25T09:26:53;101522.95;;;14.88;48.29
40372;BME280;28564;53.346;-6.554;2022-09-25T09:29:37;101509.43;;;14.91;48.24
40372;BME280;28564;53.346;-6.554;2022-09-25T09:32:27;101507.40;;;15.15;48.42
40372;BME280;28564;53.346;-6.554;2022-09-25T09:35:09;101509.77;;;14.67;48.42
40372;BME280;28564;53.346;-6.554;2022-09-25T09:37:47;101511.89;;;14.99;48.64
40372;BME280;28564;53.346;-6.554;2022-09-25T09:40:25;101496.66;;;15.48;48.59
40372;BME280;28564;53.346;-6.554;2022-09-25T09:43:01;101483.15;;;15.55;48.43
40372;BME280;28564;53.346;-6.554;2022-09-25T09:45:39;101479.21;;;15.56;47.62
40372;BME280;28564;53.346;-6.554;2022-09-25T09:48:13;101481.09;;;15.60;47.72
40372;BME280;28564;53.346;-6.554;2022-09-25T09:50:45;101478.57;;;15.74;47.61
40372;BME280;28564;53.346;-6.554;2022-09-25T09:53:24;101472.81;;;15.82;47.45
40372;BME280;28564;53.346;-6.554;2022-09-25T09:55:56;101464.32;;;15.96;47.60
40372;BME280;28564;53.346;-6.554;2022-09-25T09:58:30;101455.92;;;16.17;47.37
40372;BME280;28564;53.346;-6.554;2022-09-25T10:00:59;101460.53;;;16.12;47.35
40372;BME280;28564;53.346;-6.554;2022-09-25T10:03:29;101466.42;;;16.36;47.26
40372;BME280;28564;53.346;-6.554;2022-09-25T10:06:02;101464.38;;;16.62;47.10
40372;BME280;28564;53.346;-6.554;2022-09-25T10:08:30;101458.19;;;16.58;47.17
40372;BME280;28564;53.346;-6.554;2022-09-25T10:10:58;101458.91;;;16.74;46.76
40372;BME280;28564;53.346;-6.554;2022-09-25T10:13:30;101453.39;;;16.74;46.48
40372;BME280;28564;53.346;-6.554;2022-09-25T10:15:59;101453.79;;;16.68;46.12
40372;BME280;28564;53.346;-6.554;2022-09-25T10:18:33;101454.44;;;16.64;45.58
40372;BME280;28564;53.346;-6.554;2022-09-25T10:21:05;101451.10;;;16.56;45.44
40372;BME280;28564;53.346;-6.554;2022-09-25T10:23:38;101445.98;;;16.57;45.61
40372;BME280;28564;53.346;-6.554;2022-09-25T10:26:23;101446.07;;;16.59;45.23
40372;BME280;28564;53.346;-6.554;2022-09-25T10:28:50;101438.39;;;16.86;45.14
40372;BME280;28564;53.346;-6.554;2022-09-25T10:31:18;101429.76;;;16.63;45.32
40372;BME280;28564;53.346;-6.554;2022-09-25T10:33:59;101432.96;;;16.66;45.39
40372;BME280;28564;53.346;-6.554;2022-09-25T10:36:33;101419.97;;;16.71;45.29
40372;BME280;28564;53.346;-6.554;2022-09-25T10:39:02;101408.10;;;16.77;45.29
40372;BME280;28564;53.346;-6.554;2022-09-25T10:41:40;101404.00;;;17.02;45.10
40372;BME280;28564;53.346;-6.554;2022-09-25T10:44:20;101411.52;;;16.83;45.04
40372;BME280;28564;53.346;-6.554;2022-09-25T10:46:48;101403.90;;;16.75;45.22
40372;BME280;28564;53.346;-6.554;2022-09-25T10:49:17;101395.80;;;16.96;45.63
40372;BME280;28564;53.346;-6.554;2022-09-25T10:52:00;101395.54;;;16.71;45.71
40372;BME280;28564;53.346;-6.554;2022-09-25T10:54:28;101389.46;;;16.93;45.84
40372;BME280;28564;53.346;-6.554;2022-09-25T10:56:55;101387.96;;;17.29;45.65
40372;BME280;28564;53.346;-6.554;2022-09-25T10:59:23;101399.53;;;17.64;44.39
40372;BME280;28564;53.346;-6.554;2022-09-25T11:01:51;101392.34;;;17.90;44.37
40372;BME280;28564;53.346;-6.554;2022-09-25T11:04:22;101383.07;;;17.99;43.26
40372;BME280;28564;53.346;-6.554;2022-09-25T11:06:53;101390.69;;;18.24;43.27
40372;BME280;28564;53.346;-6.554;2022-09-25T11:09:22;101390.95;;;18.36;41.99
40372;BME280;28564;53.346;-6.554;2022-09-25T11:11:52;101392.27;;;18.45;41.99
40372;BME280;28564;53.346;-6.554;2022-09-25T11:14:31;101394.65;;;18.39;42.28
40372;BME280;28564;53.346;-6.554;2022-09-25T11:17:01;101393.38;;;18.43;41.34
40372;BME280;28564;53.346;-6.554;2022-09-25T11:19:31;101392.82;;;18.43;41.42
40372;BME280;28564;53.346;-6.554;2022-09-25T11:22:06;101398.91;;;18.46;41.11
40372;BME280;28564;53.346;-6.554;2022-09-25T11:24:42;101391.78;;;18.52;40.98
40372;BME280;28564;53.346;-6.554;2022-09-25T11:27:15;101388.81;;;18.71;40.81
40372;BME280;28564;53.346;-6.554;2022-09-25T11:29:53;101394.19;;;18.40;39.98
40372;BME280;28564;53.346;-6.554;2022-09-25T11:32:28;101386.52;;;18.93;40.22
40372;BME280;28564;53.346;-6.554;2022-09-25T11:35:11;101378.92;;;18.85;39.28
40372;BME280;28564;53.346;-6.554;2022-09-25T11:37:49;101374.05;;;19.27;39.40
40372;BME280;28564;53.346;-6.554;2022-09-25T11:40:32;101370.09;;;19.36;39.02
40372;BME280;28564;53.346;-6.554;2022-09-25T11:43:04;101355.10;;;19.78;37.83
40372;BME280;28564;53.346;-6.554;2022-09-25T11:45:38;101344.00;;;19.44;37.58
40372;BME280;28564;53.346;-6.554;2022-09-25T11:48:15;101340.11;;;19.47;37.93
40372;BME280;28564;53.346;-6.554;2022-09-25T11:50:51;101339.33;;;19.28;37.66
40372;BME280;28564;53.346;-6.554;2022-09-25T11:53:28;101338.22;;;19.08;37.93
40372;BME280;28564;53.346;-6.554;2022-09-25T11:56:09;101330.76;;;18.81;38.35
40372;BME280;28564;53.346;-6.554;2022-09-25T11:58:49;101326.69;;;19.05;38.20
40372;BME280;28564;53.346;-6.554;2022-09-25T12:01:28;101319.29;;;19.09;37.89
40372;BME280;28564;53.346;-6.554;2022-09-25T12:04:06;101325.83;;;19.46;37.86
40372;BME280;28564;53.346;-6.554;2022-09-25T12:06:54;101333.20;;;19.19;38.16
40372;BME280;28564;53.346;-6.554;2022-09-25T12:09:38;101333.18;;;19.09;38.02
40372;BME280;28564;53.346;-6.554;2022-09-25T12:12:18;101336.55;;;19.09;37.73
40372;BME280;28564;53.346;-6.554;2022-09-25T12:14:51;101334.99;;;19.21;37.50
40372;BME280;28564;53.346;-6.554;2022-09-25T12:17:27;101333.06;;;18.99;38.20
40372;BME280;28564;53.346;-6.554;2022-09-25T12:20:02;101324.85;;;19.00;38.65
40372;BME280;28564;53.346;-6.554;2022-09-25T12:22:42;101323.22;;;19.37;38.67
40372;BME280;28564;53.346;-6.554;2022-09-25T12:25:19;101314.24;;;19.14;38.72
40372;BME280;28564;53.346;-6.554;2022-09-25T12:27:57;101313.47;;;19.16;38.82
40372;BME280;28564;53.346;-6.554;2022-09-25T12:30:33;101312.08;;;18.94;39.21
40372;BME280;28564;53.346;-6.554;2022-09-25T12:33:10;101307.51;;;19.03;39.11
40372;BME280;28564;53.346;-6.554;2022-09-25T12:35:47;101300.69;;;19.00;39.68
40372;BME280;28564;53.346;-6.554;2022-09-25T12:38:22;101289.42;;;18.85;39.97
40372;BME280;28564;53.346;-6.554;2022-09-25T12:40:57;101288.93;;;18.66;40.07
40372;BME280;28564;53.346;-6.554;2022-09-25T12:43:31;101283.74;;;18.57;40.51
40372;BME280;28564;53.346;-6.554;2022-09-25T12:46:04;101277.50;;;18.50;40.77
40372;BME280;28564;53.346;-6.554;2022-09-25T12:48:36;101276.15;;;18.71;40.39
40372;BME280;28564;53.346;-6.554;2022-09-25T12:51:12;101270.20;;;18.70;40.47
40372;BME280;28564;53.346;-6.554;2022-09-25T12:53:45;101265.76;;;18.78;40.23
40372;BME280;28564;53.346;-6.554;2022-09-25T12:56:18;101268.63;;;19.21;39.72
40372;BME280;28564;53.346;-6.554;2022-09-25T12:58:59;101267.79;;;19.26;39.36
40372;BME280;28564;53.346;-6.554;2022-09-25T13:01:34;101262.33;;;19.34;39.13